sensor_id;sensor_type;location;lat;lon;timestamp;P1;durP1;ratioP1;P2;durP2;ratioP2
74375;SDS011;62812;55.188;61.302;2024-03-02T00:01:15;17.98;;;6.65;;
74375;SDS011;62812;55.188;61.302;2024-03-02T00:03:43;9.55;;;4.75;;
74375;SDS011;62812;55.188;61.302;2024-03-02T00:06:10;12.93;;;5.78;;
74375;SDS011;62812;55.188;61.302;2024-03-02T00:08:36;12.02;;;5.88;;
74375;SDS011;62812;55.188;61.302;2024-03-02T00:11:03;13.68;;;5.82;;
74375;SDS011;62812;55.188;61.302;2024-03-02T00:13:30;15.77;;;6.28;;
74375;SDS011;62812;55.188;61.302;2024-03-02T00:15:58;12.45;;;5.05;;
74375;SDS011;62812;55.188;61.302;2024-03-02T00:18:25;13.98;;;5.75;;
74375;SDS011;62812;55.188;61.302;2024-03-02T00:20:55;13.27;;;6.43;;
74375;SDS011;62812;55.188;61.302;2024-03-02T00:23:22;11.20;;;5.70;;
74375;SDS011;62812;55.188;61.302;2024-03-02T00:25:50;10.48;;;5.18;;
74375;SDS011;62812;55.188;61.302;2024-03-02T00:28:19;12.52;;;5.65;;
74375;SDS011;62812;55.188;61.302;2024-03-02T00:30:56;13.25;;;6.30;;
74375;SDS011;62812;55.188;61.302;2024-03-02T00:33:25;13.55;;;6.05;;
74375;SDS011;62812;55.188;61.302;2024-03-02T00:35:59;13.75;;;6.55;;
74375;SDS011;62812;55.188;61.302;2024-03-02T00:38:26;13.23;;;5.63;;
74375;SDS011;62812;55.188;61.302;2024-03-02T00:40:53;13.10;;;5.72;;
74375;SDS011;62812;55.188;61.302;2024-03-02T00:46:13;12.82;;;5.90;;
74375;SDS011;62812;55.188;61.302;2024-03-02T00:48:45;14.32;;;6.90;;
74375;SDS011;62812;55.188;61.302;2024-03-02T00:51:18;12.82;;;5.70;;
74375;SDS011;62812;55.188;61.302;2024-03-02T00:53:44;13.40;;;6.57;;
74375;SDS011;62812;55.188;61.302;2024-03-02T00:56:11;14.55;;;6.72;;
74375;SDS011;62812;55.188;61.302;2024-03-02T00:58:37;15.52;;;7.05;;
74375;SDS011;62812;55.188;61.302;2024-03-02T01:01:04;16.08;;;7.15;;
74375;SDS011;62812;55.188;61.302;2024-03-02T01:03:31;14.98;;;6.07;;
74375;SDS011;62812;55.188;61.302;2024-03-02T01:05:58;14.35;;;5.85;;
74375;SDS011;62812;55.188;61.302;2024-03-02T01:08:26;13.80;;;6.35;;
74375;SDS011;62812;55.188;61.302;2024-03-02T01:10:52;13.32;;;6.70;;
74375;SDS011;62812;55.188;61.302;2024-03-02T01:13:21;14.18;;;6.28;;
74375;SDS011;62812;55.188;61.302;2024-03-02T01:15:47;15.18;;;6.93;;
74375;SDS011;62812;55.188;61.302;2024-03-02T01:18:14;18.50;;;7.60;;
74375;SDS011;62812;55.188;61.302;2024-03-02T01:20:40;17.70;;;7.18;;
74375;SDS011;62812;55.188;61.302;2024-03-02T01:23:07;14.82;;;6.90;;
74375;SDS011;62812;55.188;61.302;2024-03-02T01:25:35;15.88;;;6.80;;
74375;SDS011;62812;55.188;61.302;2024-03-02T01:28:01;17.23;;;6.95;;
74375;SDS011;62812;55.188;61.302;2024-03-02T01:30:28;16.08;;;7.15;;
74375;SDS011;62812;55.188;61.302;2024-03-02T01:32:54;13.93;;;6.80;;
74375;SDS011;62812;55.188;61.302;2024-03-02T01:35:21;15.52;;;7.55;;
74375;SDS011;62812;55.188;61.302;2024-03-02T01:37:47;14.73;;;6.57;;
74375;SDS011;62812;55.188;61.302;2024-03-02T01:40:16;15.60;;;7.03;;
74375;SDS011;62812;55.188;61.302;2024-03-02T01:42:44;16.38;;;6.60;;
74375;SDS011;62812;55.188;61.302;2024-03-02T01:45:11;12.90;;;6.25;;
74375;SDS011;62812;55.188;61.302;2024-03-02T01:47:38;16.33;;;7.57;;
74375;SDS011;62812;55.188;61.302;2024-03-02T01:50:05;17.23;;;8.25;;
74375;SDS011;62812;55.188;61.302;2024-03-02T01:52:37;13.30;;;6.90;;
74375;SDS011;62812;55.188;61.302;2024-03-02T01:55:04;14.52;;;6.85;;
74375;SDS011;62812;55.188;61.302;2024-03-02T01:57:31;16.85;;;7.22;;
74375;SDS011;62812;55.188;61.302;2024-03-02T01:59:59;18.58;;;8.02;;
74375;SDS011;62812;55.188;61.302;2024-03-02T02:02:26;19.83;;;7.97;;
74375;SDS011;62812;55.188;61.302;2024-03-02T02:04:53;18.70;;;7.88;;
74375;SDS011;62812;55.188;61.302;2024-03-02T02:07:20;14.73;;;7.38;;
74375;SDS011;62812;55.188;61.302;2024-03-02T02:09:46;16.70;;;7.10;;
74375;SDS011;62812;55.188;61.302;2024-03-02T02:12:12;17.80;;;7.00;;
74375;SDS011;62812;55.188;61.302;2024-03-02T02:14:46;17.73;;;7.55;;
74375;SDS011;62812;55.188;61.302;2024-03-02T02:17:16;18.35;;;7.28;;
74375;SDS011;62812;55.188;61.302;2024-03-02T02:19:42;19.10;;;7.28;;
74375;SDS011;62812;55.188;61.302;2024-03-02T02:22:10;19.80;;;7.20;;
74375;SDS011;62812;55.188;61.302;2024-03-02T02:24:39;12.15;;;6.38;;
74375;SDS011;62812;55.188;61.302;2024-03-02T02:27:07;16.70;;;7.53;;
74375;SDS011;62812;55.188;61.302;2024-03-02T02:29:33;12.85;;;6.50;;
74375;SDS011;62812;55.188;61.302;2024-03-02T02:31:59;16.08;;;6.97;;
74375;SDS011;62812;55.188;61.302;2024-03-02T02:34:26;15.48;;;6.47;;
74375;SDS011;62812;55.188;61.302;2024-03-02T02:36:53;16.30;;;6.63;;
74375;SDS011;62812;55.188;61.302;2024-03-02T02:39:21;13.20;;;6.15;;
74375;SDS011;62812;55.188;61.302;2024-03-02T02:41:48;16.17;;;7.07;;
74375;SDS011;62812;55.188;61.302;2024-03-02T02:44:14;16.15;;;7.35;;
74375;SDS011;62812;55.188;61.302;2024-03-02T02:46:41;13.88;;;7.03;;
74375;SDS011;62812;55.188;61.302;2024-03-02T02:49:08;17.20;;;6.78;;
74375;SDS011;62812;55.188;61.302;2024-03-02T02:51:34;18.23;;;7.63;;
74375;SDS011;62812;55.188;61.302;2024-03-02T02:54:01;17.45;;;8.27;;
74375;SDS011;62812;55.188;61.302;2024-03-02T02:56:29;19.73;;;7.22;;
74375;SDS011;62812;55.188;61.302;2024-03-02T02:58:55;12.65;;;6.25;;
74375;SDS011;62812;55.188;61.302;2024-03-02T03:01:25;11.48;;;5.45;;
74375;SDS011;62812;55.188;61.302;2024-03-02T03:03:51;18.92;;;7.15;;
74375;SDS011;62812;55.188;61.302;2024-03-02T03:06:18;15.70;;;7.20;;
74375;SDS011;62812;55.188;61.302;2024-03-02T03:08:44;15.23;;;6.45;;
74375;SDS011;62812;55.188;61.302;2024-03-02T03:11:10;20.02;;;7.80;;
74375;SDS011;62812;55.188;61.302;2024-03-02T03:13:40;15.50;;;6.65;;
74375;SDS011;62812;55.188;61.302;2024-03-02T03:16:07;14.80;;;6.72;;
74375;SDS011;62812;55.188;61.302;2024-03-02T03:18:33;16.17;;;7.28;;
74375;SDS011;62812;55.188;61.302;2024-03-02T03:21:00;13.80;;;6.57;;
74375;SDS011;62812;55.188;61.302;2024-03-02T03:23:26;11.90;;;6.30;;
74375;SDS011;62812;55.188;61.302;2024-03-02T03:25:53;13.38;;;6.43;;
74375;SDS011;62812;55.188;61.302;2024-03-02T03:28:19;16.02;;;6.47;;
74375;SDS011;62812;55.188;61.302;2024-03-02T03:30:47;14.32;;;6.72;;
74375;SDS011;62812;55.188;61.302;2024-03-02T03:33:13;12.10;;;6.93;;
74375;SDS011;62812;55.188;61.302;2024-03-02T03:35:40;19.15;;;8.55;;
74375;SDS011;62812;55.188;61.302;2024-03-02T03:38:06;14.95;;;7.35;;
74375;SDS011;62812;55.188;61.302;2024-03-02T03:40:33;19.63;;;8.15;;
74375;SDS011;62812;55.188;61.302;2024-03-02T03:42:59;18.23;;;8.23;;
74375;SDS011;62812;55.188;61.302;2024-03-02T03:45:25;21.15;;;9.45;;
74375;SDS011;62812;55.188;61.302;2024-03-02T03:47:55;21.48;;;9.77;;
74375;SDS011;62812;55.188;61.302;2024-03-02T03:50:21;18.95;;;8.07;;
74375;SDS011;62812;55.188;61.302;2024-03-02T03:52:48;16.05;;;7.82;;
74375;SDS011;62812;55.188;61.302;2024-03-02T03:55:15;16.83;;;7.82;;
74375;SDS011;62812;55.188;61.302;2024-03-02T03:57:41;18.98;;;8.35;;
74375;SDS011;62812;55.188;61.302;2024-03-02T04:00:08;19.13;;;8.45;;
74375;SDS011;62812;55.188;61.302;2024-03-02T04:02:35;17.58;;;7.55;;
74375;SDS011;62812;55.188;61.302;2024-03-02T04:05:03;20.30;;;8.40;;
74375;SDS011;62812;55.188;61.302;2024-03-02T04:07:35;22.60;;;8.70;;
74375;SDS011;62812;55.188;61.302;2024-03-02T04:10:06;20.73;;;8.60;;
74375;SDS011;62812;55.188;61.302;2024-03-02T04:12:34;19.27;;;8.43;;
74375;SDS011;62812;55.188;61.302;2024-03-02T04:15:02;19.90;;;8.95;;
74375;SDS011;62812;55.188;61.302;2024-03-02T04:17:33;19.75;;;8.55;;
74375;SDS011;62812;55.188;61.302;2024-03-02T04:19:59;17.83;;;7.90;;
74375;SDS011;62812;55.188;61.302;2024-03-02T04:22:27;21.33;;;8.65;;
74375;SDS011;62812;55.188;61.302;2024-03-02T04:24:57;25.33;;;10.77;;
74375;SDS011;62812;55.188;61.302;2024-03-02T04:27:23;23.15;;;9.95;;
74375;SDS011;62812;55.188;61.302;2024-03-02T04:29:49;19.80;;;9.18;;
74375;SDS011;62812;55.188;61.302;2024-03-02T04:32:18;18.85;;;8.88;;
74375;SDS011;62812;55.188;61.302;2024-03-02T04:34:45;15.98;;;8.50;;
74375;SDS011;62812;55.188;61.302;2024-03-02T04:37:11;18.63;;;8.50;;
74375;SDS011;62812;55.188;61.302;2024-03-02T04:39:39;20.48;;;8.93;;
74375;SDS011;62812;55.188;61.302;2024-03-02T04:42:06;18.77;;;8.43;;
74375;SDS011;62812;55.188;61.302;2024-03-02T04:44:32;15.35;;;7.65;;
74375;SDS011;62812;55.188;61.302;2024-03-02T04:46:59;17.55;;;8.20;;
74375;SDS011;62812;55.188;61.302;2024-03-02T04:49:25;19.17;;;8.77;;
74375;SDS011;62812;55.188;61.302;2024-03-02T04:51:52;22.02;;;8.05;;
74375;SDS011;62812;55.188;61.302;2024-03-02T04:54:18;17.92;;;7.78;;
74375;SDS011;62812;55.188;61.302;2024-03-02T04:56:47;17.98;;;8.70;;
74375;SDS011;62812;55.188;61.302;2024-03-02T04:59:17;19.77;;;7.57;;
74375;SDS011;62812;55.188;61.302;2024-03-02T05:01:48;15.23;;;6.47;;
74375;SDS011;62812;55.188;61.302;2024-03-02T05:04:15;18.05;;;7.00;;
74375;SDS011;62812;55.188;61.302;2024-03-02T05:06:41;17.17;;;8.68;;
74375;SDS011;62812;55.188;61.302;2024-03-02T05:09:16;19.02;;;8.23;;
74375;SDS011;62812;55.188;61.302;2024-03-02T05:11:43;20.88;;;8.40;;
74375;SDS011;62812;55.188;61.302;2024-03-02T05:14:11;25.38;;;9.48;;
74375;SDS011;62812;55.188;61.302;2024-03-02T05:16:37;22.98;;;9.90;;
74375;SDS011;62812;55.188;61.302;2024-03-02T05:19:07;21.42;;;8.85;;
74375;SDS011;62812;55.188;61.302;2024-03-02T05:21:34;19.58;;;9.02;;
74375;SDS011;62812;55.188;61.302;2024-03-02T05:24:00;22.17;;;9.60;;
74375;SDS011;62812;55.188;61.302;2024-03-02T05:26:30;20.73;;;9.25;;
74375;SDS011;62812;55.188;61.302;2024-03-02T05:28:56;21.23;;;8.70;;
74375;SDS011;62812;55.188;61.302;2024-03-02T05:31:24;22.20;;;9.75;;
74375;SDS011;62812;55.188;61.302;2024-03-02T05:33:50;21.73;;;9.07;;
74375;SDS011;62812;55.188;61.302;2024-03-02T05:36:33;22.00;;;10.07;;
74375;SDS011;62812;55.188;61.302;2024-03-02T05:39:00;20.45;;;9.80;;
74375;SDS011;62812;55.188;61.302;2024-03-02T05:41:28;22.48;;;8.98;;
74375;SDS011;62812;55.188;61.302;2024-03-02T05:43:54;23.17;;;9.23;;
74375;SDS011;62812;55.188;61.302;2024-03-02T05:46:21;21.40;;;9.57;;
74375;SDS011;62812;55.188;61.302;2024-03-02T05:48:49;20.08;;;8.88;;
74375;SDS011;62812;55.188;61.302;2024-03-02T05:51:16;23.88;;;8.75;;
74375;SDS011;62812;55.188;61.302;2024-03-02T05:53:42;21.20;;;8.43;;
74375;SDS011;62812;55.188;61.302;2024-03-02T05:56:09;20.92;;;9.05;;
74375;SDS011;62812;55.188;61.302;2024-03-02T05:58:38;21.88;;;9.15;;
74375;SDS011;62812;55.188;61.302;2024-03-02T06:01:24;23.17;;;9.27;;
74375;SDS011;62812;55.188;61.302;2024-03-02T06:03:54;23.45;;;9.95;;
74375;SDS011;62812;55.188;61.302;2024-03-02T06:06:20;24.95;;;9.93;;
74375;SDS011;62812;55.188;61.302;2024-03-02T06:08:47;23.85;;;9.70;;
74375;SDS011;62812;55.188;61.302;2024-03-02T06:11:13;23.67;;;10.07;;
74375;SDS011;62812;55.188;61.302;2024-03-02T06:13:41;16.52;;;9.00;;
74375;SDS011;62812;55.188;61.302;2024-03-02T06:16:08;22.15;;;8.57;;
74375;SDS011;62812;55.188;61.302;2024-03-02T06:18:36;21.80;;;8.73;;
74375;SDS011;62812;55.188;61.302;2024-03-02T06:21:03;18.45;;;9.05;;
74375;SDS011;62812;55.188;61.302;2024-03-02T06:23:29;23.20;;;9.63;;
74375;SDS011;62812;55.188;61.302;2024-03-02T06:25:56;23.45;;;10.40;;
74375;SDS011;62812;55.188;61.302;2024-03-02T06:28:22;26.15;;;11.75;;
74375;SDS011;62812;55.188;61.302;2024-03-02T06:30:49;20.63;;;9.45;;
74375;SDS011;62812;55.188;61.302;2024-03-02T06:33:15;21.60;;;9.82;;
74375;SDS011;62812;55.188;61.302;2024-03-02T06:35:44;23.08;;;10.13;;
74375;SDS011;62812;55.188;61.302;2024-03-02T06:38:12;20.33;;;9.27;;
74375;SDS011;62812;55.188;61.302;2024-03-02T06:40:38;32.28;;;14.40;;
74375;SDS011;62812;55.188;61.302;2024-03-02T06:43:13;28.50;;;11.38;;
74375;SDS011;62812;55.188;61.302;2024-03-02T06:45:40;25.20;;;10.50;;
74375;SDS011;62812;55.188;61.302;2024-03-02T06:48:06;21.77;;;10.38;;
74375;SDS011;62812;55.188;61.302;2024-03-02T06:50:36;21.80;;;10.82;;
74375;SDS011;62812;55.188;61.302;2024-03-02T06:53:04;23.02;;;10.18;;
74375;SDS011;62812;55.188;61.302;2024-03-02T06:55:32;25.33;;;10.75;;
74375;SDS011;62812;55.188;61.302;2024-03-02T06:57:58;24.92;;;10.32;;
74375;SDS011;62812;55.188;61.302;2024-03-02T07:00:24;21.08;;;9.75;;
74375;SDS011;62812;55.188;61.302;2024-03-02T07:02:51;21.48;;;9.82;;
74375;SDS011;62812;55.188;61.302;2024-03-02T07:05:17;26.45;;;10.27;;
74375;SDS011;62812;55.188;61.302;2024-03-02T07:07:44;24.55;;;9.43;;
74375;SDS011;62812;55.188;61.302;2024-03-02T07:10:12;24.08;;;9.50;;
74375;SDS011;62812;55.188;61.302;2024-03-02T07:12:38;32.22;;;10.98;;
74375;SDS011;62812;55.188;61.302;2024-03-02T07:15:05;22.30;;;9.50;;
74375;SDS011;62812;55.188;61.302;2024-03-02T07:17:33;29.20;;;10.73;;
74375;SDS011;62812;55.188;61.302;2024-03-02T07:20:00;21.60;;;9.77;;
74375;SDS011;62812;55.188;61.302;2024-03-02T07:22:26;20.05;;;8.02;;
74375;SDS011;62812;55.188;61.302;2024-03-02T07:24:52;18.98;;;8.48;;
74375;SDS011;62812;55.188;61.302;2024-03-02T07:27:20;17.42;;;7.93;;
74375;SDS011;62812;55.188;61.302;2024-03-02T07:29:48;18.10;;;7.82;;
74375;SDS011;62812;55.188;61.302;2024-03-02T07:32:15;18.83;;;8.02;;
74375;SDS011;62812;55.188;61.302;2024-03-02T07:34:42;18.38;;;8.82;;
74375;SDS011;62812;55.188;61.302;2024-03-02T07:37:08;23.08;;;9.82;;
74375;SDS011;62812;55.188;61.302;2024-03-02T07:39:35;20.15;;;8.63;;
74375;SDS011;62812;55.188;61.302;2024-03-02T07:42:02;20.83;;;8.35;;
74375;SDS011;62812;55.188;61.302;2024-03-02T07:44:30;17.80;;;8.20;;
74375;SDS011;62812;55.188;61.302;2024-03-02T07:46:58;15.30;;;6.55;;
74375;SDS011;62812;55.188;61.302;2024-03-02T07:49:31;18.75;;;5.28;;
74375;SDS011;62812;55.188;61.302;2024-03-02T07:51:57;13.55;;;6.55;;
74375;SDS011;62812;55.188;61.302;2024-03-02T07:54:51;12.88;;;6.18;;
74375;SDS011;62812;55.188;61.302;2024-03-02T07:57:27;12.95;;;6.25;;
74375;SDS011;62812;55.188;61.302;2024-03-02T07:59:55;11.80;;;5.45;;
74375;SDS011;62812;55.188;61.302;2024-03-02T08:02:21;13.07;;;4.70;;
74375;SDS011;62812;55.188;61.302;2024-03-02T08:04:48;14.32;;;4.90;;
74375;SDS011;62812;55.188;61.302;2024-03-02T08:07:15;14.45;;;5.80;;
74375;SDS011;62812;55.188;61.302;2024-03-02T08:09:41;11.35;;;4.63;;
74375;SDS011;62812;55.188;61.302;2024-03-02T08:12:08;10.80;;;5.15;;
74375;SDS011;62812;55.188;61.302;2024-03-02T08:14:34;11.10;;;5.85;;
74375;SDS011;62812;55.188;61.302;2024-03-02T08:17:02;10.60;;;4.85;;
74375;SDS011;62812;55.188;61.302;2024-03-02T08:19:36;12.63;;;5.60;;
74375;SDS011;62812;55.188;61.302;2024-03-02T08:22:03;9.50;;;4.85;;
74375;SDS011;62812;55.188;61.302;2024-03-02T08:24:29;10.93;;;4.50;;
74375;SDS011;62812;55.188;61.302;2024-03-02T08:26:56;10.88;;;5.70;;
74375;SDS011;62812;55.188;61.302;2024-03-02T08:29:24;10.60;;;5.68;;
74375;SDS011;62812;55.188;61.302;2024-03-02T08:31:51;41.58;;;15.77;;
74375;SDS011;62812;55.188;61.302;2024-03-02T08:34:18;12.88;;;4.95;;
74375;SDS011;62812;55.188;61.302;2024-03-02T08:36:45;12.85;;;4.85;;
74375;SDS011;62812;55.188;61.302;2024-03-02T08:39:12;12.75;;;5.40;;
74375;SDS011;62812;55.188;61.302;2024-03-02T08:41:41;12.35;;;4.60;;
74375;SDS011;62812;55.188;61.302;2024-03-02T08:44:09;11.00;;;5.22;;
74375;SDS011;62812;55.188;61.302;2024-03-02T08:46:41;13.65;;;5.20;;
74375;SDS011;62812;55.188;61.302;2024-03-02T08:49:08;13.27;;;5.68;;
74375;SDS011;62812;55.188;61.302;2024-03-02T08:51:37;14.35;;;6.20;;
74375;SDS011;62812;55.188;61.302;2024-03-02T08:54:03;12.55;;;5.72;;
74375;SDS011;62812;55.188;61.302;2024-03-02T08:56:30;13.35;;;5.57;;
74375;SDS011;62812;55.188;61.302;2024-03-02T08:58:57;14.82;;;5.80;;
74375;SDS011;62812;55.188;61.302;2024-03-02T09:01:25;14.32;;;5.63;;
74375;SDS011;62812;55.188;61.302;2024-03-02T09:04:16;16.02;;;6.47;;
74375;SDS011;62812;55.188;61.302;2024-03-02T09:06:51;13.82;;;5.97;;
74375;SDS011;62812;55.188;61.302;2024-03-02T09:09:21;13.93;;;5.82;;
74375;SDS011;62812;55.188;61.302;2024-03-02T09:11:48;14.13;;;6.55;;
74375;SDS011;62812;55.188;61.302;2024-03-02T09:14:15;13.88;;;6.55;;
74375;SDS011;62812;55.188;61.302;2024-03-02T09:16:42;14.18;;;6.00;;
74375;SDS011;62812;55.188;61.302;2024-03-02T09:19:08;17.67;;;6.45;;
74375;SDS011;62812;55.188;61.302;2024-03-02T09:21:48;16.35;;;7.47;;
74375;SDS011;62812;55.188;61.302;2024-03-02T09:24:16;16.80;;;6.80;;
74375;SDS011;62812;55.188;61.302;2024-03-02T09:26:44;14.65;;;6.35;;
74375;SDS011;62812;55.188;61.302;2024-03-02T09:29:11;16.08;;;6.63;;
74375;SDS011;62812;55.188;61.302;2024-03-02T09:31:40;14.60;;;6.43;;
74375;SDS011;62812;55.188;61.302;2024-03-02T09:34:07;12.60;;;6.03;;
74375;SDS011;62812;55.188;61.302;2024-03-02T09:36:34;15.65;;;6.97;;
74375;SDS011;62812;55.188;61.302;2024-03-02T09:39:08;13.40;;;6.32;;
74375;SDS011;62812;55.188;61.302;2024-03-02T09:41:38;16.65;;;6.93;;
74375;SDS011;62812;55.188;61.302;2024-03-02T09:44:05;15.15;;;6.65;;
74375;SDS011;62812;55.188;61.302;2024-03-02T09:46:32;13.90;;;6.55;;
74375;SDS011;62812;55.188;61.302;2024-03-02T09:48:58;11.30;;;5.47;;
74375;SDS011;62812;55.188;61.302;2024-03-02T09:51:25;14.50;;;5.38;;
74375;SDS011;62812;55.188;61.302;2024-03-02T09:53:52;10.82;;;5.28;;
74375;SDS011;62812;55.188;61.302;2024-03-02T09:56:25;9.75;;;5.05;;
74375;SDS011;62812;55.188;61.302;2024-03-02T09:58:56;11.27;;;5.57;;
74375;SDS011;62812;55.188;61.302;2024-03-02T10:01:23;8.70;;;4.30;;
74375;SDS011;62812;55.188;61.302;2024-03-02T10:03:50;13.52;;;5.18;;
74375;SDS011;62812;55.188;61.302;2024-03-02T10:06:21;14.35;;;5.60;;
74375;SDS011;62812;55.188;61.302;2024-03-02T10:08:48;9.52;;;4.40;;
74375;SDS011;62812;55.188;61.302;2024-03-02T10:11:27;9.93;;;4.53;;
74375;SDS011;62812;55.188;61.302;2024-03-02T10:14:05;18.75;;;5.45;;
74375;SDS011;62812;55.188;61.302;2024-03-02T10:16:36;11.68;;;5.15;;
74375;SDS011;62812;55.188;61.302;2024-03-02T10:19:17;11.20;;;5.25;;
74375;SDS011;62812;55.188;61.302;2024-03-02T10:21:45;13.32;;;5.97;;
74375;SDS011;62812;55.188;61.302;2024-03-02T10:24:15;14.13;;;5.72;;
74375;SDS011;62812;55.188;61.302;2024-03-02T10:26:43;13.10;;;5.47;;
74375;SDS011;62812;55.188;61.302;2024-03-02T10:29:09;11.73;;;5.78;;
74375;SDS011;62812;55.188;61.302;2024-03-02T10:31:36;11.52;;;5.07;;
74375;SDS011;62812;55.188;61.302;2024-03-02T10:34:04;12.35;;;4.63;;
74375;SDS011;62812;55.188;61.302;2024-03-02T10:36:34;10.85;;;5.07;;
74375;SDS011;62812;55.188;61.302;2024-03-02T10:39:02;10.48;;;4.93;;
74375;SDS011;62812;55.188;61.302;2024-03-02T10:41:30;10.77;;;4.05;;
74375;SDS011;62812;55.188;61.302;2024-03-02T10:44:03;13.10;;;5.53;;
74375;SDS011;62812;55.188;61.302;2024-03-02T10:46:31;12.35;;;6.07;;
74375;SDS011;62812;55.188;61.302;2024-03-02T10:48:59;8.90;;;4.07;;
74375;SDS011;62812;55.188;61.302;2024-03-02T10:51:27;11.88;;;5.00;;
74375;SDS011;62812;55.188;61.302;2024-03-02T10:53:59;9.85;;;4.68;;
74375;SDS011;62812;55.188;61.302;2024-03-02T10:56:27;10.18;;;5.07;;
74375;SDS011;62812;55.188;61.302;2024-03-02T10:59:00;12.85;;;5.25;;
74375;SDS011;62812;55.188;61.302;2024-03-02T11:01:32;8.98;;;4.53;;
74375;SDS011;62812;55.188;61.302;2024-03-02T11:04:03;10.80;;;5.45;;
74375;SDS011;62812;55.188;61.302;2024-03-02T11:06:33;11.23;;;5.07;;
74375;SDS011;62812;55.188;61.302;2024-03-02T11:09:06;9.93;;;4.70;;
74375;SDS011;62812;55.188;61.302;2024-03-02T11:11:43;10.05;;;5.38;;
74375;SDS011;62812;55.188;61.302;2024-03-02T11:14:13;12.52;;;5.90;;
74375;SDS011;62812;55.188;61.302;2024-03-02T11:16:42;11.88;;;6.18;;
74375;SDS011;62812;55.188;61.302;2024-03-02T11:19:13;11.07;;;5.32;;
74375;SDS011;62812;55.188;61.302;2024-03-02T11:21:42;14.00;;;5.53;;
74375;SDS011;62812;55.188;61.302;2024-03-02T11:27:01;10.82;;;5.25;;
74375;SDS011;62812;55.188;61.302;2024-03-02T11:29:45;10.15;;;5.03;;
74375;SDS011;62812;55.188;61.302;2024-03-02T11:32:13;11.52;;;5.80;;
74375;SDS011;62812;55.188;61.302;2024-03-02T11:34:41;10.70;;;5.18;;
74375;SDS011;62812;55.188;61.302;2024-03-02T11:37:13;19.73;;;8.88;;
74375;SDS011;62812;55.188;61.302;2024-03-02T11:39:41;8.70;;;4.20;;
74375;SDS011;62812;55.188;61.302;2024-03-02T11:42:09;12.50;;;5.90;;
74375;SDS011;62812;55.188;61.302;2024-03-02T11:44:36;14.43;;;6.18;;
74375;SDS011;62812;55.188;61.302;2024-03-02T11:47:12;13.65;;;5.90;;
74375;SDS011;62812;55.188;61.302;2024-03-02T11:49:42;12.65;;;5.72;;
74375;SDS011;62812;55.188;61.302;2024-03-02T11:52:11;11.07;;;5.18;;
74375;SDS011;62812;55.188;61.302;2024-03-02T11:54:38;12.15;;;5.78;;
74375;SDS011;62812;55.188;61.302;2024-03-02T11:57:17;9.63;;;5.07;;
74375;SDS011;62812;55.188;61.302;2024-03-02T11:59:45;13.60;;;5.65;;
74375;SDS011;62812;55.188;61.302;2024-03-02T12:02:15;11.75;;;5.85;;
74375;SDS011;62812;55.188;61.302;2024-03-02T12:04:43;12.32;;;5.80;;
74375;SDS011;62812;55.188;61.302;2024-03-02T12:07:10;13.18;;;5.38;;
74375;SDS011;62812;55.188;61.302;2024-03-02T12:09:38;11.65;;;5.53;;
74375;SDS011;62812;55.188;61.302;2024-03-02T12:12:05;14.10;;;5.75;;
74375;SDS011;62812;55.188;61.302;2024-03-02T12:14:33;15.50;;;6.15;;
74375;SDS011;62812;55.188;61.302;2024-03-02T12:17:01;12.95;;;6.57;;
74375;SDS011;62812;55.188;61.302;2024-03-02T12:19:32;13.52;;;7.90;;
74375;SDS011;62812;55.188;61.302;2024-03-02T12:21:59;14.50;;;6.25;;
74375;SDS011;62812;55.188;61.302;2024-03-02T12:24:29;10.48;;;5.72;;
74375;SDS011;62812;55.188;61.302;2024-03-02T12:26:58;12.10;;;6.15;;
74375;SDS011;62812;55.188;61.302;2024-03-02T12:29:25;12.98;;;5.95;;
74375;SDS011;62812;55.188;61.302;2024-03-02T12:31:52;12.43;;;6.57;;
74375;SDS011;62812;55.188;61.302;2024-03-02T12:34:18;10.95;;;5.50;;
74375;SDS011;62812;55.188;61.302;2024-03-02T12:36:47;17.08;;;6.70;;
74375;SDS011;62812;55.188;61.302;2024-03-02T12:39:15;11.48;;;5.65;;
74375;SDS011;62812;55.188;61.302;2024-03-02T12:41:48;16.23;;;6.45;;
74375;SDS011;62812;55.188;61.302;2024-03-02T12:44:16;15.23;;;6.68;;
74375;SDS011;62812;55.188;61.302;2024-03-02T12:46:44;14.48;;;6.28;;
74375;SDS011;62812;55.188;61.302;2024-03-02T12:49:14;13.98;;;6.55;;
74375;SDS011;62812;55.188;61.302;2024-03-02T12:51:44;17.02;;;7.03;;
74375;SDS011;62812;55.188;61.302;2024-03-02T12:54:14;13.20;;;6.72;;
74375;SDS011;62812;55.188;61.302;2024-03-02T12:56:50;12.52;;;6.47;;
74375;SDS011;62812;55.188;61.302;2024-03-02T12:59:20;14.32;;;6.65;;
74375;SDS011;62812;55.188;61.302;2024-03-02T13:01:50;14.90;;;7.07;;
74375;SDS011;62812;55.188;61.302;2024-03-02T13:04:21;15.10;;;7.20;;
74375;SDS011;62812;55.188;61.302;2024-03-02T13:06:51;13.43;;;6.22;;
74375;SDS011;62812;55.188;61.302;2024-03-02T13:09:20;17.48;;;6.93;;
74375;SDS011;62812;55.188;61.302;2024-03-02T13:11:47;12.18;;;6.80;;
74375;SDS011;62812;55.188;61.302;2024-03-02T13:14:14;12.00;;;6.60;;
74375;SDS011;62812;55.188;61.302;2024-03-02T13:16:40;15.07;;;6.85;;
74375;SDS011;62812;55.188;61.302;2024-03-02T13:19:07;14.88;;;6.18;;
74375;SDS011;62812;55.188;61.302;2024-03-02T13:21:34;14.02;;;6.05;;
74375;SDS011;62812;55.188;61.302;2024-03-02T13:24:01;13.10;;;6.68;;
74375;SDS011;62812;55.188;61.302;2024-03-02T13:26:30;15.75;;;7.32;;
74375;SDS011;62812;55.188;61.302;2024-03-02T13:28:58;13.20;;;6.53;;
74375;SDS011;62812;55.188;61.302;2024-03-02T13:31:24;14.23;;;5.78;;
74375;SDS011;62812;55.188;61.302;2024-03-02T13:33:51;13.43;;;6.45;;
74375;SDS011;62812;55.188;61.302;2024-03-02T13:36:17;15.60;;;6.13;;
74375;SDS011;62812;55.188;61.302;2024-03-02T13:38:48;13.15;;;6.70;;
74375;SDS011;62812;55.188;61.302;2024-03-02T13:41:16;13.30;;;6.25;;
74375;SDS011;62812;55.188;61.302;2024-03-02T13:43:44;12.82;;;6.30;;
74375;SDS011;62812;55.188;61.302;2024-03-02T13:46:14;14.10;;;6.53;;
74375;SDS011;62812;55.188;61.302;2024-03-02T13:48:40;13.82;;;7.00;;
74375;SDS011;62812;55.188;61.302;2024-03-02T13:51:07;16.73;;;7.20;;
74375;SDS011;62812;55.188;61.302;2024-03-02T13:53:36;16.05;;;7.70;;
74375;SDS011;62812;55.188;61.302;2024-03-02T13:56:08;13.23;;;7.35;;
74375;SDS011;62812;55.188;61.302;2024-03-02T13:58:38;16.58;;;7.28;;
74375;SDS011;62812;55.188;61.302;2024-03-02T14:01:11;13.25;;;6.57;;
74375;SDS011;62812;55.188;61.302;2024-03-02T14:03:40;14.20;;;7.30;;
74375;SDS011;62812;55.188;61.302;2024-03-02T14:06:07;15.35;;;7.40;;
74375;SDS011;62812;55.188;61.302;2024-03-02T14:08:34;14.13;;;6.93;;
74375;SDS011;62812;55.188;61.302;2024-03-02T14:11:01;15.75;;;6.65;;
74375;SDS011;62812;55.188;61.302;2024-03-02T14:13:40;14.55;;;7.07;;
74375;SDS011;62812;55.188;61.302;2024-03-02T14:16:11;16.88;;;7.72;;
74375;SDS011;62812;55.188;61.302;2024-03-02T14:18:37;20.70;;;8.07;;
74375;SDS011;62812;55.188;61.302;2024-03-02T14:21:04;15.45;;;7.25;;
74375;SDS011;62812;55.188;61.302;2024-03-02T14:23:33;14.98;;;6.95;;
74375;SDS011;62812;55.188;61.302;2024-03-02T14:26:01;15.68;;;7.22;;
74375;SDS011;62812;55.188;61.302;2024-03-02T14:28:31;36.83;;;14.57;;
74375;SDS011;62812;55.188;61.302;2024-03-02T14:30:57;16.10;;;7.28;;
74375;SDS011;62812;55.188;61.302;2024-03-02T14:33:31;16.58;;;7.22;;